Morris, IL (60450)

2:52 AM CDT on April 02, 2015 (GMT -0500)
Morris Tac-Wx-Ops EW3943 APRS | | Change Station
CLOSE
Current Station
Personal Weather Station
Location: Morris, IL
Elevation: 548 ft
Nearby Weather Stations

Elev 548 ft 41.38 °N, 88.43 °W | Updated 11 seconds ago

Clear
Clear
55.2 °F
Feels Like 55.2 °F
N
9.9
Wind Variable Wind from South
Gusts 14.5 mph

Today
High -- | Low -- °F
--% Chance of Precip.
Yesterday
High -- | Low -- °F
Precip. -- in
6:35 AM 7:19 PM
Waxing Gibbous, 96% visible
Pressure 29.77 in
Visibility 10.0 miles
Clouds Scattered Clouds 4900 ft
Scattered Clouds 6500 ft
Dew Point 37 °F
Humidity 51%
Rainfall 0.00 in
Snow Depth Not available.
UV 0 out of 12
Pollen 7.30 out of 12
Air Quality Not available.
Flu Activity Not available.
METAR KC09 020735Z AUTO 17011KT 10SM SCT049 SCT065 13/02 A2977 RMK AO2 LTG DSNT SW T01260022

More Conditions Fewer Conditions

Pressure 29.77 in
Visibility 10.0 miles
Clouds Scattered Clouds 4900 ft
Scattered Clouds 6500 ft
Dew Point 37 °F
Humidity 51%
Rainfall 0.00 in
Snow Depth Not available.
UV 0 out of 12
Pollen 7.30 out of 12
Air Quality Not available.
Flu Activity Not available.
METAR KC09 020735Z AUTO 17011KT 10SM SCT049 SCT065 13/02 A2977 RMK AO2 LTG DSNT SW T01260022

More Conditions Fewer Conditions

10-Day Weather Forecast

Almanac

Astronomy

Apr. 02, 2015 Rise Set
Actual Time
Civil Twilight
Nautical Twilight
Astronomical Twilight
Moon
Length of Visible Light
Length of Day
Tomorrow will be .
, % of the Moon is Illuminated

Today's Extremes

State Highs State Lows

Community

WunderPhotos

Upload Photos

1,810,206 photos uploaded!

WunderBlogs® & News

Nearby

Air Quality

  Air Quality AQ Index Pollutant
Not available.

Snow Depth

Station Depth Elevation

Earthquake Activity

City Distance Mag. Time & Date
Minimum magnitude displayed is 2.5.

Coastal Water Temperatures

Place Temperature

Stations

Nearby Weather Stations

Station Location Temp. Windchill Dew Point Humidity Wind Precip. Elev Updated Type